sensor_id;sensor_type;location;lat;lon;timestamp;P1;durP1;ratioP1;P2;durP2;ratioP2
76171;SDS011;64929;51.178;4.138;2024-02-21T00:00:37;10.52;;;4.07;;
76171;SDS011;64929;51.178;4.138;2024-02-21T00:03:04;9.73;;;4.43;;
76171;SDS011;64929;51.178;4.138;2024-02-21T00:05:30;11.30;;;4.57;;
76171;SDS011;64929;51.178;4.138;2024-02-21T00:07:56;16.15;;;3.78;;
76171;SDS011;64929;51.178;4.138;2024-02-21T00:10:24;9.38;;;3.22;;
76171;SDS011;64929;51.178;4.138;2024-02-21T00:12:50;12.20;;;4.68;;
76171;SDS011;64929;51.178;4.138;2024-02-21T00:15:16;13.75;;;4.25;;
76171;SDS011;64929;51.178;4.138;2024-02-21T00:17:42;9.93;;;3.70;;
76171;SDS011;64929;51.178;4.138;2024-02-21T00:20:11;9.02;;;4.07;;
76171;SDS011;64929;51.178;4.138;2024-02-21T00:22:37;11.23;;;4.60;;
76171;SDS011;64929;51.178;4.138;2024-02-21T00:25:03;11.05;;;4.10;;
76171;SDS011;64929;51.178;4.138;2024-02-21T00:27:28;9.70;;;4.50;;
76171;SDS011;64929;51.178;4.138;2024-02-21T00:29:54;10.65;;;3.90;;
76171;SDS011;64929;51.178;4.138;2024-02-21T00:32:20;13.63;;;4.50;;
76171;SDS011;64929;51.178;4.138;2024-02-21T00:34:46;9.48;;;3.88;;
76171;SDS011;64929;51.178;4.138;2024-02-21T00:37:11;9.73;;;3.80;;
76171;SDS011;64929;51.178;4.138;2024-02-21T00:39:37;13.88;;;5.00;;
76171;SDS011;64929;51.178;4.138;2024-02-21T00:42:03;9.35;;;4.47;;
76171;SDS011;64929;51.178;4.138;2024-02-21T00:44:29;15.63;;;4.40;;
76171;SDS011;64929;51.178;4.138;2024-02-21T00:46:55;13.52;;;4.28;;
76171;SDS011;64929;51.178;4.138;2024-02-21T00:49:21;11.15;;;4.38;;
76171;SDS011;64929;51.178;4.138;2024-02-21T00:51:47;11.48;;;4.55;;
76171;SDS011;64929;51.178;4.138;2024-02-21T00:54:13;14.38;;;4.70;;
76171;SDS011;64929;51.178;4.138;2024-02-21T00:56:38;10.27;;;4.22;;
76171;SDS011;64929;51.178;4.138;2024-02-21T00:59:05;9.73;;;4.30;;
76171;SDS011;64929;51.178;4.138;2024-02-21T01:01:30;16.08;;;5.10;;
76171;SDS011;64929;51.178;4.138;2024-02-21T01:03:56;12.18;;;4.38;;
76171;SDS011;64929;51.178;4.138;2024-02-21T01:06:22;13.85;;;4.80;;
76171;SDS011;64929;51.178;4.138;2024-02-21T01:08:48;14.07;;;4.05;;
76171;SDS011;64929;51.178;4.138;2024-02-21T01:11:14;16.35;;;4.57;;
76171;SDS011;64929;51.178;4.138;2024-02-21T01:13:41;13.85;;;4.90;;
76171;SDS011;64929;51.178;4.138;2024-02-21T01:16:07;15.77;;;4.10;;
76171;SDS011;64929;51.178;4.138;2024-02-21T01:18:37;12.43;;;4.70;;
76171;SDS011;64929;51.178;4.138;2024-02-21T01:21:04;12.55;;;5.13;;
76171;SDS011;64929;51.178;4.138;2024-02-21T01:23:32;13.57;;;4.38;;
76171;SDS011;64929;51.178;4.138;2024-02-21T01:25:59;10.02;;;4.22;;
76171;SDS011;64929;51.178;4.138;2024-02-21T01:28:25;8.77;;;4.22;;
76171;SDS011;64929;51.178;4.138;2024-02-21T01:30:50;8.52;;;4.18;;
76171;SDS011;64929;51.178;4.138;2024-02-21T01:33:16;14.30;;;4.63;;
76171;SDS011;64929;51.178;4.138;2024-02-21T01:35:42;12.88;;;4.25;;
76171;SDS011;64929;51.178;4.138;2024-02-21T01:38:08;14.90;;;4.50;;
76171;SDS011;64929;51.178;4.138;2024-02-21T01:40:34;10.10;;;4.32;;
76171;SDS011;64929;51.178;4.138;2024-02-21T01:42:59;8.98;;;4.13;;
76171;SDS011;64929;51.178;4.138;2024-02-21T01:45:25;13.23;;;4.75;;
76171;SDS011;64929;51.178;4.138;2024-02-21T01:47:51;11.98;;;4.63;;
76171;SDS011;64929;51.178;4.138;2024-02-21T01:50:17;10.75;;;4.40;;
76171;SDS011;64929;51.178;4.138;2024-02-21T01:52:43;14.70;;;4.32;;
76171;SDS011;64929;51.178;4.138;2024-02-21T01:55:13;13.10;;;4.57;;
76171;SDS011;64929;51.178;4.138;2024-02-21T01:57:40;15.18;;;4.40;;
76171;SDS011;64929;51.178;4.138;2024-02-21T02:00:07;10.82;;;4.20;;
76171;SDS011;64929;51.178;4.138;2024-02-21T02:02:35;15.13;;;4.50;;
76171;SDS011;64929;51.178;4.138;2024-02-21T02:05:03;11.25;;;5.25;;
76171;SDS011;64929;51.178;4.138;2024-02-21T02:07:31;8.18;;;3.97;;
76171;SDS011;64929;51.178;4.138;2024-02-21T02:09:57;10.18;;;4.65;;
76171;SDS011;64929;51.178;4.138;2024-02-21T02:12:22;13.63;;;5.45;;
76171;SDS011;64929;51.178;4.138;2024-02-21T02:14:59;7.43;;;4.38;;
76171;SDS011;64929;51.178;4.138;2024-02-21T02:17:25;17.35;;;6.03;;
76171;SDS011;64929;51.178;4.138;2024-02-21T02:19:51;14.27;;;4.93;;
76171;SDS011;64929;51.178;4.138;2024-02-21T02:22:18;18.13;;;5.88;;
76171;SDS011;64929;51.178;4.138;2024-02-21T02:24:47;15.95;;;6.13;;
76171;SDS011;64929;51.178;4.138;2024-02-21T02:27:13;17.58;;;5.72;;
76171;SDS011;64929;51.178;4.138;2024-02-21T02:29:39;14.00;;;5.55;;
76171;SDS011;64929;51.178;4.138;2024-02-21T02:32:05;17.73;;;6.30;;
76171;SDS011;64929;51.178;4.138;2024-02-21T02:34:31;17.23;;;5.97;;
76171;SDS011;64929;51.178;4.138;2024-02-21T02:36:57;18.85;;;6.20;;
76171;SDS011;64929;51.178;4.138;2024-02-21T02:39:22;15.70;;;5.85;;
76171;SDS011;64929;51.178;4.138;2024-02-21T02:41:48;19.58;;;6.47;;
76171;SDS011;64929;51.178;4.138;2024-02-21T02:44:14;24.30;;;7.32;;
76171;SDS011;64929;51.178;4.138;2024-02-21T02:46:42;22.42;;;7.28;;
76171;SDS011;64929;51.178;4.138;2024-02-21T02:49:08;21.52;;;7.25;;
76171;SDS011;64929;51.178;4.138;2024-02-21T02:51:34;20.33;;;7.18;;
76171;SDS011;64929;51.178;4.138;2024-02-21T02:54:00;26.65;;;6.53;;
76171;SDS011;64929;51.178;4.138;2024-02-21T02:56:25;17.48;;;6.82;;
76171;SDS011;64929;51.178;4.138;2024-02-21T02:58:51;18.45;;;6.72;;
76171;SDS011;64929;51.178;4.138;2024-02-21T03:01:17;18.55;;;7.13;;
76171;SDS011;64929;51.178;4.138;2024-02-21T03:03:42;20.67;;;6.97;;
76171;SDS011;64929;51.178;4.138;2024-02-21T03:06:10;24.02;;;7.50;;
76171;SDS011;64929;51.178;4.138;2024-02-21T03:08:36;22.30;;;7.13;;
76171;SDS011;64929;51.178;4.138;2024-02-21T03:11:02;20.10;;;7.43;;
76171;SDS011;64929;51.178;4.138;2024-02-21T03:13:27;21.58;;;7.03;;
76171;SDS011;64929;51.178;4.138;2024-02-21T03:15:53;23.15;;;6.95;;
76171;SDS011;64929;51.178;4.138;2024-02-21T03:18:19;18.38;;;7.85;;
76171;SDS011;64929;51.178;4.138;2024-02-21T03:20:45;21.25;;;7.10;;
76171;SDS011;64929;51.178;4.138;2024-02-21T03:23:10;14.77;;;6.55;;
76171;SDS011;64929;51.178;4.138;2024-02-21T03:25:36;19.42;;;7.43;;
76171;SDS011;64929;51.178;4.138;2024-02-21T03:28:02;19.55;;;6.97;;
76171;SDS011;64929;51.178;4.138;2024-02-21T03:30:28;21.75;;;8.48;;
76171;SDS011;64929;51.178;4.138;2024-02-21T03:32:54;21.38;;;6.50;;
76171;SDS011;64929;51.178;4.138;2024-02-21T03:35:20;19.73;;;7.20;;
76171;SDS011;64929;51.178;4.138;2024-02-21T03:37:45;21.90;;;7.25;;
76171;SDS011;64929;51.178;4.138;2024-02-21T03:40:11;15.90;;;7.22;;
76171;SDS011;64929;51.178;4.138;2024-02-21T03:42:37;22.13;;;8.18;;
76171;SDS011;64929;51.178;4.138;2024-02-21T03:45:03;18.75;;;6.95;;
76171;SDS011;64929;51.178;4.138;2024-02-21T03:47:29;19.25;;;7.03;;
76171;SDS011;64929;51.178;4.138;2024-02-21T03:49:55;20.42;;;6.88;;
76171;SDS011;64929;51.178;4.138;2024-02-21T03:52:21;20.17;;;7.30;;
76171;SDS011;64929;51.178;4.138;2024-02-21T03:54:47;23.50;;;7.60;;
76171;SDS011;64929;51.178;4.138;2024-02-21T03:57:13;17.25;;;6.70;;
76171;SDS011;64929;51.178;4.138;2024-02-21T03:59:38;16.45;;;6.80;;
76171;SDS011;64929;51.178;4.138;2024-02-21T04:02:05;20.15;;;6.90;;
76171;SDS011;64929;51.178;4.138;2024-02-21T04:04:33;15.85;;;6.85;;
76171;SDS011;64929;51.178;4.138;2024-02-21T04:07:02;14.32;;;6.53;;
76171;SDS011;64929;51.178;4.138;2024-02-21T04:09:32;21.35;;;7.60;;
76171;SDS011;64929;51.178;4.138;2024-02-21T04:12:01;16.70;;;7.30;;
76171;SDS011;64929;51.178;4.138;2024-02-21T04:14:26;20.42;;;7.40;;
76171;SDS011;64929;51.178;4.138;2024-02-21T04:16:52;22.55;;;6.95;;
76171;SDS011;64929;51.178;4.138;2024-02-21T04:19:18;20.60;;;7.63;;
76171;SDS011;64929;51.178;4.138;2024-02-21T04:21:44;20.00;;;6.93;;
76171;SDS011;64929;51.178;4.138;2024-02-21T04:24:09;18.83;;;6.55;;
76171;SDS011;64929;51.178;4.138;2024-02-21T04:26:35;17.63;;;7.32;;
76171;SDS011;64929;51.178;4.138;2024-02-21T04:29:01;22.52;;;7.63;;
76171;SDS011;64929;51.178;4.138;2024-02-21T04:31:27;22.00;;;7.53;;
76171;SDS011;64929;51.178;4.138;2024-02-21T04:33:53;16.67;;;6.70;;
76171;SDS011;64929;51.178;4.138;2024-02-21T04:36:19;18.33;;;7.28;;
76171;SDS011;64929;51.178;4.138;2024-02-21T04:38:45;20.17;;;6.72;;
76171;SDS011;64929;51.178;4.138;2024-02-21T04:41:10;22.85;;;8.45;;
76171;SDS011;64929;51.178;4.138;2024-02-21T04:43:36;20.02;;;8.32;;
76171;SDS011;64929;51.178;4.138;2024-02-21T04:46:02;16.17;;;7.53;;
76171;SDS011;64929;51.178;4.138;2024-02-21T04:48:28;19.83;;;7.88;;
76171;SDS011;64929;51.178;4.138;2024-02-21T04:50:53;21.73;;;7.68;;
76171;SDS011;64929;51.178;4.138;2024-02-21T04:53:19;18.25;;;7.80;;
76171;SDS011;64929;51.178;4.138;2024-02-21T04:55:45;19.70;;;7.72;;
76171;SDS011;64929;51.178;4.138;2024-02-21T04:58:12;21.50;;;7.55;;
76171;SDS011;64929;51.178;4.138;2024-02-21T05:00:37;22.15;;;8.02;;
76171;SDS011;64929;51.178;4.138;2024-02-21T05:03:03;25.65;;;9.63;;
76171;SDS011;64929;51.178;4.138;2024-02-21T05:05:29;19.30;;;8.05;;
76171;SDS011;64929;51.178;4.138;2024-02-21T05:07:55;20.58;;;7.63;;
76171;SDS011;64929;51.178;4.138;2024-02-21T05:10:20;19.73;;;7.95;;
76171;SDS011;64929;51.178;4.138;2024-02-21T05:12:46;21.00;;;8.02;;
76171;SDS011;64929;51.178;4.138;2024-02-21T05:15:12;21.35;;;8.82;;
76171;SDS011;64929;51.178;4.138;2024-02-21T05:17:37;20.48;;;9.45;;
76171;SDS011;64929;51.178;4.138;2024-02-21T05:20:03;19.75;;;8.63;;
76171;SDS011;64929;51.178;4.138;2024-02-21T05:22:30;17.88;;;7.78;;
76171;SDS011;64929;51.178;4.138;2024-02-21T05:24:56;17.83;;;8.43;;
76171;SDS011;64929;51.178;4.138;2024-02-21T05:27:22;21.77;;;8.35;;
76171;SDS011;64929;51.178;4.138;2024-02-21T05:29:47;16.83;;;8.02;;
76171;SDS011;64929;51.178;4.138;2024-02-21T05:32:14;20.52;;;8.05;;
76171;SDS011;64929;51.178;4.138;2024-02-21T05:34:39;20.75;;;9.13;;
76171;SDS011;64929;51.178;4.138;2024-02-21T05:37:05;22.13;;;8.52;;
76171;SDS011;64929;51.178;4.138;2024-02-21T05:39:31;16.67;;;8.05;;
76171;SDS011;64929;51.178;4.138;2024-02-21T05:41:56;20.77;;;8.25;;
76171;SDS011;64929;51.178;4.138;2024-02-21T05:44:22;21.25;;;8.07;;
76171;SDS011;64929;51.178;4.138;2024-02-21T05:46:48;21.40;;;7.40;;
76171;SDS011;64929;51.178;4.138;2024-02-21T05:49:14;14.20;;;7.82;;
76171;SDS011;64929;51.178;4.138;2024-02-21T05:51:39;16.48;;;8.57;;
76171;SDS011;64929;51.178;4.138;2024-02-21T05:54:05;18.23;;;8.18;;
76171;SDS011;64929;51.178;4.138;2024-02-21T05:56:32;20.13;;;7.70;;
76171;SDS011;64929;51.178;4.138;2024-02-21T05:58:58;19.45;;;8.07;;
76171;SDS011;64929;51.178;4.138;2024-02-21T06:01:24;26.63;;;8.40;;
76171;SDS011;64929;51.178;4.138;2024-02-21T06:03:49;19.83;;;8.90;;
76171;SDS011;64929;51.178;4.138;2024-02-21T06:06:15;16.52;;;7.78;;
76171;SDS011;64929;51.178;4.138;2024-02-21T06:08:41;19.65;;;7.90;;
76171;SDS011;64929;51.178;4.138;2024-02-21T06:11:07;15.90;;;7.78;;
76171;SDS011;64929;51.178;4.138;2024-02-21T06:13:32;14.68;;;7.30;;
76171;SDS011;64929;51.178;4.138;2024-02-21T06:15:58;18.30;;;8.10;;
76171;SDS011;64929;51.178;4.138;2024-02-21T06:18:24;18.83;;;8.48;;
76171;SDS011;64929;51.178;4.138;2024-02-21T06:20:49;14.57;;;8.27;;
76171;SDS011;64929;51.178;4.138;2024-02-21T06:23:15;16.35;;;8.52;;
76171;SDS011;64929;51.178;4.138;2024-02-21T06:25:44;22.73;;;8.80;;
76171;SDS011;64929;51.178;4.138;2024-02-21T06:28:11;24.33;;;9.43;;
76171;SDS011;64929;51.178;4.138;2024-02-21T06:30:36;19.92;;;8.98;;
76171;SDS011;64929;51.178;4.138;2024-02-21T06:33:02;25.33;;;10.55;;
76171;SDS011;64929;51.178;4.138;2024-02-21T06:35:28;19.02;;;9.63;;
76171;SDS011;64929;51.178;4.138;2024-02-21T06:37:54;33.58;;;12.45;;
76171;SDS011;64929;51.178;4.138;2024-02-21T06:40:21;18.73;;;8.80;;
76171;SDS011;64929;51.178;4.138;2024-02-21T06:42:48;29.52;;;12.13;;
76171;SDS011;64929;51.178;4.138;2024-02-21T06:45:14;19.92;;;9.27;;
76171;SDS011;64929;51.178;4.138;2024-02-21T06:47:40;23.08;;;10.38;;
76171;SDS011;64929;51.178;4.138;2024-02-21T06:50:05;29.80;;;12.63;;
76171;SDS011;64929;51.178;4.138;2024-02-21T06:52:31;18.48;;;9.40;;
76171;SDS011;64929;51.178;4.138;2024-02-21T06:54:57;32.65;;;12.90;;
76171;SDS011;64929;51.178;4.138;2024-02-21T06:57:23;21.13;;;9.80;;
76171;SDS011;64929;51.178;4.138;2024-02-21T06:59:48;14.20;;;7.53;;
76171;SDS011;64929;51.178;4.138;2024-02-21T07:02:14;22.67;;;9.88;;
76171;SDS011;64929;51.178;4.138;2024-02-21T07:04:40;21.30;;;9.25;;
76171;SDS011;64929;51.178;4.138;2024-02-21T07:07:06;30.02;;;12.27;;
76171;SDS011;64929;51.178;4.138;2024-02-21T07:09:31;20.88;;;9.57;;
76171;SDS011;64929;51.178;4.138;2024-02-21T07:12:01;23.77;;;11.40;;
76171;SDS011;64929;51.178;4.138;2024-02-21T07:14:30;27.85;;;13.98;;
76171;SDS011;64929;51.178;4.138;2024-02-21T07:16:59;32.72;;;14.23;;
76171;SDS011;64929;51.178;4.138;2024-02-21T07:19:24;25.48;;;11.10;;
76171;SDS011;64929;51.178;4.138;2024-02-21T07:21:50;24.92;;;11.73;;
76171;SDS011;64929;51.178;4.138;2024-02-21T07:24:16;33.75;;;13.45;;
76171;SDS011;64929;51.178;4.138;2024-02-21T07:26:42;39.38;;;16.60;;
76171;SDS011;64929;51.178;4.138;2024-02-21T07:29:08;18.83;;;9.45;;
76171;SDS011;64929;51.178;4.138;2024-02-21T07:31:40;17.05;;;8.07;;
76171;SDS011;64929;51.178;4.138;2024-02-21T07:34:06;15.02;;;7.90;;
76171;SDS011;64929;51.178;4.138;2024-02-21T07:36:32;15.95;;;8.65;;
76171;SDS011;64929;51.178;4.138;2024-02-21T07:38:57;17.88;;;7.80;;
76171;SDS011;64929;51.178;4.138;2024-02-21T07:41:24;19.27;;;8.32;;
76171;SDS011;64929;51.178;4.138;2024-02-21T07:43:50;20.25;;;8.00;;
76171;SDS011;64929;51.178;4.138;2024-02-21T07:46:17;14.13;;;7.60;;
76171;SDS011;64929;51.178;4.138;2024-02-21T07:48:44;14.30;;;7.05;;
76171;SDS011;64929;51.178;4.138;2024-02-21T07:51:10;13.52;;;7.90;;
76171;SDS011;64929;51.178;4.138;2024-02-21T07:53:36;14.25;;;7.68;;
76171;SDS011;64929;51.178;4.138;2024-02-21T07:56:03;10.85;;;6.80;;
76171;SDS011;64929;51.178;4.138;2024-02-21T07:58:29;12.27;;;6.35;;
76171;SDS011;64929;51.178;4.138;2024-02-21T08:00:55;13.02;;;7.25;;
76171;SDS011;64929;51.178;4.138;2024-02-21T08:03:21;12.15;;;6.40;;
76171;SDS011;64929;51.178;4.138;2024-02-21T08:05:47;13.85;;;6.97;;
76171;SDS011;64929;51.178;4.138;2024-02-21T08:08:13;12.88;;;6.68;;
76171;SDS011;64929;51.178;4.138;2024-02-21T08:10:43;12.05;;;6.90;;
76171;SDS011;64929;51.178;4.138;2024-02-21T08:13:09;13.85;;;6.88;;
76171;SDS011;64929;51.178;4.138;2024-02-21T08:15:34;13.00;;;6.28;;
76171;SDS011;64929;51.178;4.138;2024-02-21T08:18:00;12.18;;;6.95;;
76171;SDS011;64929;51.178;4.138;2024-02-21T08:20:27;15.75;;;7.85;;
76171;SDS011;64929;51.178;4.138;2024-02-21T08:22:52;19.60;;;10.32;;
76171;SDS011;64929;51.178;4.138;2024-02-21T08:25:18;13.90;;;7.28;;
76171;SDS011;64929;51.178;4.138;2024-02-21T08:27:44;19.30;;;9.75;;
76171;SDS011;64929;51.178;4.138;2024-02-21T08:30:10;17.58;;;9.75;;
76171;SDS011;64929;51.178;4.138;2024-02-21T08:32:36;17.02;;;8.38;;
76171;SDS011;64929;51.178;4.138;2024-02-21T08:35:02;19.05;;;11.10;;
76171;SDS011;64929;51.178;4.138;2024-02-21T08:37:30;18.40;;;9.80;;
76171;SDS011;64929;51.178;4.138;2024-02-21T08:39:55;12.25;;;6.88;;
76171;SDS011;64929;51.178;4.138;2024-02-21T08:42:21;13.15;;;7.38;;
76171;SDS011;64929;51.178;4.138;2024-02-21T08:44:47;12.98;;;7.25;;
76171;SDS011;64929;51.178;4.138;2024-02-21T08:47:13;13.10;;;8.00;;
76171;SDS011;64929;51.178;4.138;2024-02-21T08:49:38;11.00;;;7.63;;
76171;SDS011;64929;51.178;4.138;2024-02-21T08:52:04;13.30;;;7.00;;
76171;SDS011;64929;51.178;4.138;2024-02-21T08:54:30;13.40;;;7.07;;
76171;SDS011;64929;51.178;4.138;2024-02-21T08:56:57;14.52;;;7.25;;
76171;SDS011;64929;51.178;4.138;2024-02-21T08:59:23;13.35;;;7.40;;
76171;SDS011;64929;51.178;4.138;2024-02-21T09:01:49;18.00;;;7.63;;
76171;SDS011;64929;51.178;4.138;2024-02-21T09:04:17;14.90;;;8.07;;
76171;SDS011;64929;51.178;4.138;2024-02-21T09:06:43;10.85;;;6.93;;
76171;SDS011;64929;51.178;4.138;2024-02-21T09:09:10;12.82;;;7.78;;
76171;SDS011;64929;51.178;4.138;2024-02-21T09:11:35;13.23;;;7.45;;
76171;SDS011;64929;51.178;4.138;2024-02-21T09:14:01;15.77;;;7.72;;
76171;SDS011;64929;51.178;4.138;2024-02-21T09:16:30;12.10;;;7.30;;
76171;SDS011;64929;51.178;4.138;2024-02-21T09:18:56;16.27;;;7.68;;
76171;SDS011;64929;51.178;4.138;2024-02-21T09:21:23;11.65;;;6.30;;
76171;SDS011;64929;51.178;4.138;2024-02-21T09:23:48;14.85;;;7.03;;
76171;SDS011;64929;51.178;4.138;2024-02-21T09:26:14;15.38;;;7.40;;
76171;SDS011;64929;51.178;4.138;2024-02-21T09:28:42;12.23;;;6.47;;
76171;SDS011;64929;51.178;4.138;2024-02-21T09:31:10;13.60;;;6.82;;
76171;SDS011;64929;51.178;4.138;2024-02-21T09:33:36;14.55;;;7.07;;
76171;SDS011;64929;51.178;4.138;2024-02-21T09:36:02;20.55;;;7.70;;
76171;SDS011;64929;51.178;4.138;2024-02-21T09:38:30;33.30;;;13.98;;
76171;SDS011;64929;51.178;4.138;2024-02-21T09:41:00;41.33;;;14.52;;
76171;SDS011;64929;51.178;4.138;2024-02-21T09:43:29;10.82;;;6.13;;
76171;SDS011;64929;51.178;4.138;2024-02-21T09:45:58;11.50;;;6.90;;
76171;SDS011;64929;51.178;4.138;2024-02-21T09:48:32;10.55;;;7.00;;
76171;SDS011;64929;51.178;4.138;2024-02-21T09:51:23;16.00;;;6.50;;
76171;SDS011;64929;51.178;4.138;2024-02-21T09:53:50;12.45;;;6.90;;
76171;SDS011;64929;51.178;4.138;2024-02-21T09:56:18;13.88;;;5.97;;
76171;SDS011;64929;51.178;4.138;2024-02-21T09:58:43;11.50;;;6.40;;
76171;SDS011;64929;51.178;4.138;2024-02-21T10:01:09;10.63;;;5.28;;
76171;SDS011;64929;51.178;4.138;2024-02-21T10:03:35;9.82;;;5.22;;
76171;SDS011;64929;51.178;4.138;2024-02-21T10:06:01;10.68;;;4.93;;
76171;SDS011;64929;51.178;4.138;2024-02-21T10:08:27;10.32;;;4.68;;
76171;SDS011;64929;51.178;4.138;2024-02-21T10:10:53;10.80;;;5.20;;
76171;SDS011;64929;51.178;4.138;2024-02-21T10:13:27;14.52;;;5.30;;
76171;SDS011;64929;51.178;4.138;2024-02-21T10:18:32;13.27;;;4.65;;
76171;SDS011;64929;51.178;4.138;2024-02-21T10:21:02;8.63;;;4.28;;
76171;SDS011;64929;51.178;4.138;2024-02-21T10:23:28;10.20;;;4.45;;
76171;SDS011;64929;51.178;4.138;2024-02-21T10:26:04;10.05;;;4.57;;
76171;SDS011;64929;51.178;4.138;2024-02-21T10:28:31;6.78;;;4.28;;
76171;SDS011;64929;51.178;4.138;2024-02-21T10:30:56;9.10;;;3.97;;
76171;SDS011;64929;51.178;4.138;2024-02-21T10:33:22;7.60;;;4.53;;
76171;SDS011;64929;51.178;4.138;2024-02-21T10:35:50;8.40;;;4.30;;
76171;SDS011;64929;51.178;4.138;2024-02-21T10:38:17;14.85;;;4.50;;
76171;SDS011;64929;51.178;4.138;2024-02-21T10:40:43;8.88;;;3.90;;
76171;SDS011;64929;51.178;4.138;2024-02-21T10:43:12;6.18;;;3.85;;
76171;SDS011;64929;51.178;4.138;2024-02-21T10:45:39;11.10;;;4.03;;
76171;SDS011;64929;51.178;4.138;2024-02-21T10:48:13;7.45;;;3.20;;
76171;SDS011;64929;51.178;4.138;2024-02-21T10:51:25;11.75;;;4.35;;
76171;SDS011;64929;51.178;4.138;2024-02-21T10:53:50;7.78;;;4.35;;
76171;SDS011;64929;51.178;4.138;2024-02-21T10:56:31;7.22;;;3.88;;
76171;SDS011;64929;51.178;4.138;2024-02-21T10:59:05;8.35;;;3.75;;
76171;SDS011;64929;51.178;4.138;2024-02-21T11:04:07;7.50;;;4.03;;
76171;SDS011;64929;51.178;4.138;2024-02-21T11:06:35;10.80;;;4.55;;
76171;SDS011;64929;51.178;4.138;2024-02-21T11:09:03;7.00;;;3.55;;
76171;SDS011;64929;51.178;4.138;2024-02-21T11:11:40;8.82;;;3.78;;
76171;SDS011;64929;51.178;4.138;2024-02-21T11:14:11;6.90;;;3.42;;
76171;SDS011;64929;51.178;4.138;2024-02-21T11:16:44;5.78;;;3.58;;
76171;SDS011;64929;51.178;4.138;2024-02-21T11:19:20;8.48;;;3.83;;
76171;SDS011;64929;51.178;4.138;2024-02-21T11:21:47;9.02;;;4.28;;
76171;SDS011;64929;51.178;4.138;2024-02-21T11:24:13;5.40;;;3.10;;
76171;SDS011;64929;51.178;4.138;2024-02-21T11:26:50;8.48;;;3.38;;
76171;SDS011;64929;51.178;4.138;2024-02-21T11:29:15;5.07;;;3.45;;
76171;SDS011;64929;51.178;4.138;2024-02-21T11:31:49;10.50;;;3.17;;
76171;SDS011;64929;51.178;4.138;2024-02-21T11:34:17;9.88;;;3.10;;
76171;SDS011;64929;51.178;4.138;2024-02-21T11:36:47;6.75;;;3.33;;
76171;SDS011;64929;51.178;4.138;2024-02-21T11:39:24;7.03;;;2.88;;
76171;SDS011;64929;51.178;4.138;2024-02-21T11:42:03;7.10;;;3.17;;
76171;SDS011;64929;51.178;4.138;2024-02-21T11:44:31;9.63;;;3.38;;
76171;SDS011;64929;51.178;4.138;2024-02-21T11:46:57;10.80;;;3.55;;
76171;SDS011;64929;51.178;4.138;2024-02-21T11:49:28;10.02;;;3.53;;
76171;SDS011;64929;51.178;4.138;2024-02-21T11:51:57;7.00;;;3.40;;
76171;SDS011;64929;51.178;4.138;2024-02-21T11:54:29;6.63;;;3.28;;
76171;SDS011;64929;51.178;4.138;2024-02-21T11:56:55;10.68;;;4.28;;
76171;SDS011;64929;51.178;4.138;2024-02-21T11:59:21;9.75;;;4.03;;
76171;SDS011;64929;51.178;4.138;2024-02-21T12:01:47;12.63;;;3.47;;
76171;SDS011;64929;51.178;4.138;2024-02-21T12:04:13;9.48;;;3.08;;
76171;SDS011;64929;51.178;4.138;2024-02-21T12:06:42;10.52;;;3.75;;
76171;SDS011;64929;51.178;4.138;2024-02-21T12:09:09;10.15;;;3.72;;
76171;SDS011;64929;51.178;4.138;2024-02-21T12:11:38;8.25;;;3.85;;
76171;SDS011;64929;51.178;4.138;2024-02-21T12:14:04;9.55;;;3.53;;
76171;SDS011;64929;51.178;4.138;2024-02-21T12:16:30;6.93;;;3.78;;
76171;SDS011;64929;51.178;4.138;2024-02-21T12:18:57;7.63;;;3.15;;
76171;SDS011;64929;51.178;4.138;2024-02-21T12:21:27;5.65;;;3.08;;
76171;SDS011;64929;51.178;4.138;2024-02-21T12:23:57;6.55;;;3.45;;
76171;SDS011;64929;51.178;4.138;2024-02-21T12:26:24;7.43;;;3.20;;
76171;SDS011;64929;51.178;4.138;2024-02-21T12:28:50;11.95;;;3.72;;
76171;SDS011;64929;51.178;4.138;2024-02-21T12:31:16;14.48;;;4.35;;
76171;SDS011;64929;51.178;4.138;2024-02-21T12:33:42;5.97;;;3.22;;
76171;SDS011;64929;51.178;4.138;2024-02-21T12:36:08;9.73;;;3.85;;
76171;SDS011;64929;51.178;4.138;2024-02-21T12:38:34;7.65;;;3.10;;
76171;SDS011;64929;51.178;4.138;2024-02-21T12:41:01;12.70;;;3.35;;
76171;SDS011;64929;51.178;4.138;2024-02-21T12:43:27;6.03;;;3.38;;
76171;SDS011;64929;51.178;4.138;2024-02-21T12:45:52;7.18;;;3.35;;
76171;SDS011;64929;51.178;4.138;2024-02-21T12:48:18;8.13;;;4.10;;
76171;SDS011;64929;51.178;4.138;2024-02-21T12:50:50;6.72;;;3.35;;
76171;SDS011;64929;51.178;4.138;2024-02-21T12:53:17;8.63;;;3.35;;
76171;SDS011;64929;51.178;4.138;2024-02-21T12:55:46;3.97;;;2.58;;
76171;SDS011;64929;51.178;4.138;2024-02-21T12:58:13;5.60;;;3.33;;
76171;SDS011;64929;51.178;4.138;2024-02-21T13:00:39;5.07;;;2.92;;
76171;SDS011;64929;51.178;4.138;2024-02-21T13:03:05;5.70;;;3.42;;
76171;SDS011;64929;51.178;4.138;2024-02-21T13:05:31;5.20;;;2.97;;
76171;SDS011;64929;51.178;4.138;2024-02-21T13:07:57;7.85;;;3.20;;
76171;SDS011;64929;51.178;4.138;2024-02-21T13:10:23;7.68;;;3.90;;
76171;SDS011;64929;51.178;4.138;2024-02-21T13:12:49;7.40;;;3.15;;
76171;SDS011;64929;51.178;4.138;2024-02-21T13:15:15;5.35;;;3.17;;
76171;SDS011;64929;51.178;4.138;2024-02-21T13:17:43;5.70;;;3.17;;
76171;SDS011;64929;51.178;4.138;2024-02-21T13:20:09;7.20;;;3.33;;
76171;SDS011;64929;51.178;4.138;2024-02-21T13:22:36;8.18;;;2.97;;
76171;SDS011;64929;51.178;4.138;2024-02-21T13:25:02;9.73;;;3.25;;
76171;SDS011;64929;51.178;4.138;2024-02-21T13:27:32;4.35;;;3.03;;
76171;SDS011;64929;51.178;4.138;2024-02-21T13:29:58;8.90;;;3.17;;
76171;SDS011;64929;51.178;4.138;2024-02-21T13:32:26;4.32;;;3.03;;
76171;SDS011;64929;51.178;4.138;2024-02-21T13:34:52;5.13;;;3.17;;
76171;SDS011;64929;51.178;4.138;2024-02-21T13:37:17;10.50;;;4.10;;
76171;SDS011;64929;51.178;4.138;2024-02-21T13:39:43;7.75;;;3.50;;
76171;SDS011;64929;51.178;4.138;2024-02-21T13:42:09;6.25;;;3.50;;
76171;SDS011;64929;51.178;4.138;2024-02-21T13:44:35;6.43;;;3.47;;
76171;SDS011;64929;51.178;4.138;2024-02-21T13:47:02;5.80;;;3.40;;
76171;SDS011;64929;51.178;4.138;2024-02-21T13:49:28;8.77;;;4.47;;
76171;SDS011;64929;51.178;4.138;2024-02-21T13:51:55;11.32;;;4.05;;
76171;SDS011;64929;51.178;4.138;2024-02-21T13:54:21;10.48;;;3.83;;
76171;SDS011;64929;51.178;4.138;2024-02-21T13:56:46;9.27;;;4.45;;
76171;SDS011;64929;51.178;4.138;2024-02-21T13:59:12;6.80;;;4.13;;
76171;SDS011;64929;51.178;4.138;2024-02-21T14:01:41;8.65;;;4.22;;
76171;SDS011;64929;51.178;4.138;2024-02-21T14:04:07;8.75;;;4.38;;
76171;SDS011;64929;51.178;4.138;2024-02-21T14:06:33;8.60;;;4.15;;
76171;SDS011;64929;51.178;4.138;2024-02-21T14:08:59;9.07;;;5.10;;
76171;SDS011;64929;51.178;4.138;2024-02-21T14:11:25;8.57;;;4.55;;
76171;SDS011;64929;51.178;4.138;2024-02-21T14:13:52;7.20;;;4.18;;
76171;SDS011;64929;51.178;4.138;2024-02-21T14:16:17;9.88;;;4.85;;
76171;SDS011;64929;51.178;4.138;2024-02-21T14:18:43;7.97;;;4.50;;
76171;SDS011;64929;51.178;4.138;2024-02-21T14:21:09;8.45;;;4.15;;
76171;SDS011;64929;51.178;4.138;2024-02-21T14:23:39;8.13;;;4.53;;
76171;SDS011;64929;51.178;4.138;2024-02-21T14:26:05;8.93;;;4.88;;
76171;SDS011;64929;51.178;4.138;2024-02-21T14:28:31;9.25;;;4.28;;
76171;SDS011;64929;51.178;4.138;2024-02-21T14:30:59;13.30;;;5.82;;
76171;SDS011;64929;51.178;4.138;2024-02-21T14:33:25;12.10;;;5.47;;
76171;SDS011;64929;51.178;4.138;2024-02-21T14:35:51;12.30;;;4.95;;
76171;SDS011;64929;51.178;4.138;2024-02-21T14:38:18;8.25;;;4.95;;
76171;SDS011;64929;51.178;4.138;2024-02-21T14:40:46;8.10;;;4.95;;